createdAt,value
2023-05-22T00:01:52.487Z,53.65
2023-05-22T00:04:59.542Z,53.06
2023-05-22T00:08:06.265Z,53.89
2023-05-22T00:11:10.344Z,58.77
2023-05-22T00:14:15.024Z,55.50
2023-05-22T00:17:19.317Z,55.18
2023-05-22T00:20:24.136Z,56.55
2023-05-22T00:23:29.183Z,53.25
2023-05-22T00:26:33.293Z,50.72
2023-05-22T00:29:37.302Z,51.59
2023-05-22T00:32:41.887Z,53.69
2023-05-22T00:35:46.349Z,56.08
2023-05-22T00:38:50.824Z,58.16
2023-05-22T00:41:54.879Z,58.87
2023-05-22T00:44:59.205Z,58.80
2023-05-22T00:48:03.768Z,59.93
2023-05-22T00:51:09.358Z,60.17
2023-05-22T00:54:14.835Z,61.10
2023-05-22T00:57:20.183Z,60.33
2023-05-22T01:00:25.036Z,60.71
2023-05-22T01:03:29.355Z,60.55
2023-05-22T01:06:34.185Z,59.19
2023-05-22T01:09:38.377Z,59.09
2023-05-22T01:13:02.863Z,58.99
2023-05-22T01:17:00.938Z,56.53
2023-05-22T01:20:30.073Z,58.73
2023-05-22T01:24:12.822Z,58.83
2023-05-22T01:27:36.037Z,57.50
2023-05-22T01:30:55.318Z,52.49
2023-05-22T01:34:02.326Z,47.99
2023-05-22T01:37:07.014Z,53.90
2023-05-22T01:40:13.050Z,55.67
2023-05-22T01:43:17.619Z,55.26
2023-05-22T01:46:22.403Z,56.77
2023-05-22T01:49:27.253Z,56.71
2023-05-22T01:52:42.629Z,55.25
2023-05-22T01:56:08.525Z,56.95
2023-05-22T01:59:31.767Z,51.74
2023-05-22T02:02:39.217Z,50.02
2023-05-22T02:05:45.722Z,46.77
2023-05-22T02:08:50.198Z,46.87
2023-05-22T02:11:54.619Z,51.01
2023-05-22T02:14:59.233Z,52.76
2023-05-22T02:18:04.742Z,53.06
2023-05-22T02:21:11.937Z,53.11
2023-05-22T02:24:16.063Z,50.61
2023-05-22T02:27:23.359Z,51.74
2023-05-22T02:30:27.519Z,51.37
2023-05-22T02:33:32.748Z,50.82
2023-05-22T02:36:38.197Z,51.15
2023-05-22T02:39:42.368Z,50.62
2023-05-22T02:42:46.475Z,50.27
2023-05-22T02:45:50.693Z,49.69
2023-05-22T02:48:54.703Z,50.22
2023-05-22T02:51:58.737Z,50.99
2023-05-22T02:55:03.028Z,51.66
2023-05-22T02:58:12.081Z,51.34
2023-05-22T03:01:16.601Z,49.79
2023-05-22T03:04:21.233Z,50.29
2023-05-22T03:07:27.215Z,50.78
2023-05-22T03:10:31.559Z,50.90
2023-05-22T03:13:35.704Z,50.93
2023-05-22T03:16:40.366Z,51.25
2023-05-22T03:19:45.027Z,47.88
2023-05-22T03:22:49.222Z,47.74
2023-05-22T03:25:54.891Z,49.09
2023-05-22T03:29:02.968Z,48.88
2023-05-22T03:32:07.660Z,51.27
2023-05-22T03:35:12.082Z,51.46
2023-05-22T03:38:16.518Z,51.01
2023-05-22T03:41:20.998Z,51.77
2023-05-22T03:44:25.595Z,51.91
2023-05-22T03:47:30.970Z,51.85
2023-05-22T03:50:34.927Z,51.65
2023-05-22T03:53:39.518Z,51.38
2023-05-22T03:56:44.874Z,50.63
2023-05-22T03:59:48.783Z,47.79
2023-05-22T04:02:53.362Z,50.44
2023-05-22T04:06:00.470Z,50.29
2023-05-22T04:09:05.260Z,50.97
2023-05-22T04:12:12.140Z,50.28
2023-05-22T04:15:16.403Z,50.76
2023-05-22T04:18:20.528Z,50.73
2023-05-22T04:21:25.396Z,51.00
2023-05-22T04:24:29.339Z,51.99
2023-05-22T04:27:36.289Z,52.43
2023-05-22T04:30:41.181Z,52.49
2023-05-22T04:33:50.634Z,52.41
2023-05-22T04:36:57.088Z,52.44
2023-05-22T04:40:08.412Z,52.99
2023-05-22T04:43:13.463Z,50.57
2023-05-22T04:46:17.720Z,51.26
2023-05-22T04:49:21.890Z,51.05
2023-05-22T04:52:26.969Z,49.97
2023-05-22T04:55:34.690Z,50.31
2023-05-22T04:58:39.386Z,50.86
2023-05-22T05:01:49.133Z,50.97
2023-05-22T05:04:54.033Z,51.03
2023-05-22T05:07:58.501Z,51.07
2023-05-22T05:11:02.849Z,50.03
2023-05-22T05:14:07.062Z,49.73
2023-05-22T05:17:11.167Z,49.03
2023-05-22T05:20:18.317Z,48.62
2023-05-22T05:23:23.263Z,49.08
2023-05-22T05:26:28.115Z,49.03
2023-05-22T05:29:32.197Z,48.76
2023-05-22T05:32:41.827Z,47.93
2023-05-22T05:35:56.979Z,45.41
2023-05-22T05:39:02.346Z,44.93
2023-05-22T05:42:10.159Z,47.99
2023-05-22T05:45:16.764Z,48.65
2023-05-22T05:48:21.100Z,48.39
2023-05-22T05:51:25.917Z,48.75
2023-05-22T05:54:30.515Z,48.65
2023-05-22T05:57:39.372Z,49.01
2023-05-22T06:00:46.654Z,49.53
2023-05-22T06:03:51.168Z,48.41
2023-05-22T06:07:02.728Z,49.04
2023-05-22T06:10:21.545Z,49.91
2023-05-22T06:13:34.945Z,49.52
2023-05-22T06:16:59.176Z,49.19
2023-05-22T06:20:03.725Z,49.26
2023-05-22T06:23:08.403Z,49.42
2023-05-22T06:26:13.091Z,48.59
2023-05-22T06:29:18.543Z,48.65
2023-05-22T06:32:24.327Z,48.07
2023-05-22T06:35:30.350Z,48.54
2023-05-22T06:38:35.054Z,47.18
2023-05-22T06:41:38.956Z,49.70
2023-05-22T06:44:45.557Z,48.60
2023-05-22T06:47:55.031Z,48.18
2023-05-22T06:50:59.799Z,48.47
2023-05-22T06:54:07.506Z,48.31
2023-05-22T06:57:13.301Z,47.61
2023-05-22T07:00:22.072Z,48.00
2023-05-22T07:03:39.715Z,46.77
2023-05-22T07:07:01.974Z,47.05
2023-05-22T07:10:06.636Z,48.25
2023-05-22T07:13:10.800Z,47.11
2023-05-22T07:16:16.184Z,46.63
2023-05-22T07:19:20.696Z,45.31
2023-05-22T07:22:24.793Z,46.63
2023-05-22T07:25:29.892Z,46.41
2023-05-22T07:28:34.501Z,46.78
2023-05-22T07:31:48.787Z,46.68
2023-05-22T07:34:54.101Z,46.49
2023-05-22T07:37:58.494Z,43.58
2023-05-22T07:41:05.578Z,46.25
2023-05-22T07:44:11.157Z,46.59
2023-05-22T07:47:15.324Z,46.29
2023-05-22T07:50:20.078Z,45.85
2023-05-22T07:53:24.980Z,45.66
2023-05-22T07:56:33.456Z,46.61
2023-05-22T07:59:38.290Z,46.88
2023-05-22T08:02:42.756Z,46.29
2023-05-22T08:05:47.290Z,46.84
2023-05-22T08:08:53.915Z,45.62
2023-05-22T08:11:57.921Z,45.43
2023-05-22T08:15:01.700Z,45.55
2023-05-22T08:18:09.065Z,46.07
2023-05-22T08:21:13.272Z,46.10
2023-05-22T08:24:17.330Z,46.44
2023-05-22T08:27:21.446Z,46.89
2023-05-22T08:30:25.598Z,46.54
2023-05-22T08:33:29.544Z,46.63
2023-05-22T08:36:34.868Z,46.98
2023-05-22T08:39:38.869Z,46.85
2023-05-22T08:42:44.009Z,47.61
2023-05-22T08:45:56.890Z,47.21
2023-05-22T08:49:02.683Z,47.81
2023-05-22T08:52:27.034Z,47.09
2023-05-22T08:55:32.260Z,47.51
2023-05-22T08:58:38.526Z,47.49
2023-05-22T09:01:43.018Z,47.37
2023-05-22T09:04:47.627Z,47.02
2023-05-22T09:07:51.805Z,46.89
2023-05-22T09:10:57.234Z,47.77
2023-05-22T09:14:11.010Z,49.31
2023-05-22T09:17:18.510Z,47.94
2023-05-22T09:20:22.797Z,48.71
2023-05-22T09:23:29.605Z,49.79
2023-05-22T09:26:34.422Z,49.55
2023-05-22T09:30:00.806Z,49.50
2023-05-22T09:33:12.611Z,50.25
2023-05-22T09:36:17.860Z,50.08
2023-05-22T09:39:24.545Z,51.16
2023-05-22T09:42:29.393Z,51.42
2023-05-22T09:45:37.031Z,52.34
2023-05-22T09:48:41.242Z,52.33
2023-05-22T09:51:50.306Z,53.07
2023-05-22T09:54:57.464Z,53.62
2023-05-22T09:58:06.230Z,54.07
2023-05-22T10:01:14.944Z,54.77
2023-05-22T10:04:20.122Z,55.51
2023-05-22T10:07:27.981Z,57.59
2023-05-22T10:10:33.135Z,56.25
2023-05-22T10:13:38.422Z,57.67
2023-05-22T10:16:46.148Z,58.57
2023-05-22T10:19:51.507Z,59.52
2023-05-22T10:22:56.915Z,60.40
2023-05-22T10:26:01.013Z,61.36
2023-05-22T10:29:15.926Z,62.45
2023-05-22T10:32:31.812Z,62.96
2023-05-22T10:35:57.516Z,63.43
2023-05-22T10:39:35.203Z,65.13
2023-05-22T10:42:39.747Z,64.87
2023-05-22T10:45:47.636Z,65.71
2023-05-22T10:48:54.178Z,65.17
2023-05-22T10:51:58.548Z,64.17
2023-05-22T10:55:07.046Z,63.94
2023-05-22T10:58:33.178Z,63.51
2023-05-22T11:01:38.822Z,67.60
2023-05-22T11:04:51.447Z,66.21
2023-05-22T11:08:31.180Z,66.61
2023-05-22T11:11:35.077Z,66.28
2023-05-22T11:14:39.403Z,67.23
2023-05-22T11:17:54.155Z,67.42
2023-05-22T11:21:01.271Z,66.70
2023-05-22T11:24:10.325Z,66.77
2023-05-22T11:27:14.899Z,68.49
2023-05-22T11:30:19.264Z,68.74
2023-05-22T11:33:25.005Z,69.47
2023-05-22T11:36:29.843Z,73.04
2023-05-22T11:39:34.112Z,70.77
2023-05-22T11:42:39.413Z,69.81
2023-05-22T11:45:43.528Z,70.51
2023-05-22T11:48:49.117Z,68.94
2023-05-22T11:51:52.910Z,71.72
2023-05-22T11:54:59.393Z,70.10
2023-05-22T11:58:05.591Z,70.02
2023-05-22T12:01:09.617Z,71.08
2023-05-22T12:04:13.883Z,71.07
2023-05-22T12:07:18.209Z,70.97
2023-05-22T12:10:22.223Z,72.15
2023-05-22T12:13:30.259Z,72.32
2023-05-22T12:16:38.248Z,71.53
2023-05-22T12:19:43.044Z,72.13
2023-05-22T12:22:47.275Z,72.21
2023-05-22T12:26:01.837Z,73.00
2023-05-22T12:29:05.933Z,73.45
2023-05-22T12:32:14.737Z,74.11
2023-05-22T12:35:19.908Z,74.11
2023-05-22T12:38:24.322Z,73.90
2023-05-22T12:41:28.282Z,74.29
2023-05-22T12:44:32.346Z,75.30
2023-05-22T12:47:36.461Z,75.25
2023-05-22T12:50:42.271Z,75.46
2023-05-22T12:53:46.256Z,75.70
2023-05-22T12:56:50.714Z,75.67
2023-05-22T12:59:54.643Z,75.42
2023-05-22T13:03:01.442Z,75.53
2023-05-22T13:06:05.740Z,75.98
2023-05-22T13:09:09.780Z,76.92
2023-05-22T13:12:13.813Z,77.09
2023-05-22T13:15:18.681Z,76.86
2023-05-22T13:18:23.130Z,75.36
2023-05-22T13:21:27.727Z,75.21
2023-05-22T13:24:33.452Z,75.10
2023-05-22T13:27:37.485Z,75.94
2023-05-22T13:30:41.954Z,76.99
2023-05-22T13:33:46.134Z,77.60
2023-05-22T13:36:50.315Z,76.79
2023-05-22T13:39:54.474Z,76.92
2023-05-22T13:42:58.586Z,76.42
2023-05-22T13:46:02.580Z,76.09
2023-05-22T13:49:06.674Z,75.83
2023-05-22T13:52:10.912Z,76.36
2023-05-22T13:55:15.531Z,75.93
2023-05-22T13:58:19.649Z,76.01
2023-05-22T14:01:24.884Z,76.33
2023-05-22T14:04:29.247Z,77.45
2023-05-22T14:07:33.879Z,77.31
2023-05-22T14:10:39.631Z,76.80
2023-05-22T14:13:43.726Z,80.08
2023-05-22T14:16:47.843Z,78.72
2023-05-22T14:19:52.001Z,77.40
2023-05-22T14:22:58.159Z,76.81
2023-05-22T14:26:02.600Z,76.38
2023-05-22T14:29:06.482Z,77.17
2023-05-22T14:32:11.004Z,78.14
2023-05-22T14:35:17.252Z,78.68
2023-05-22T14:38:21.692Z,78.32
2023-05-22T14:41:25.878Z,78.37
2023-05-22T14:44:33.006Z,79.44
2023-05-22T14:47:37.622Z,79.48
2023-05-22T14:50:41.617Z,79.66
2023-05-22T14:53:45.975Z,78.68
2023-05-22T14:56:50.162Z,78.27
2023-05-22T14:59:53.949Z,78.94
2023-05-22T15:02:58.028Z,78.82
2023-05-22T15:06:01.876Z,79.13
2023-05-22T15:09:06.355Z,79.94
2023-05-22T15:12:10.800Z,80.70
2023-05-22T15:15:14.976Z,81.06
2023-05-22T15:18:22.700Z,80.49
2023-05-22T15:21:26.826Z,78.83
2023-05-22T15:24:31.419Z,78.27
2023-05-22T15:27:36.432Z,78.33
2023-05-22T15:30:42.710Z,77.15
2023-05-22T15:33:47.511Z,77.37
2023-05-22T15:36:52.192Z,77.72
2023-05-22T15:39:56.456Z,79.42
2023-05-22T15:43:04.681Z,80.85
2023-05-22T15:46:09.288Z,81.08
2023-05-22T15:49:13.384Z,80.38
2023-05-22T15:52:17.584Z,81.48
2023-05-22T15:55:21.840Z,81.25
2023-05-22T15:58:25.687Z,82.05
2023-05-22T16:01:30.329Z,81.44
2023-05-22T16:04:34.492Z,81.20
2023-05-22T16:07:39.102Z,81.66
2023-05-22T16:10:46.184Z,81.87
2023-05-22T16:13:51.091Z,80.57
2023-05-22T16:16:55.159Z,80.40
2023-05-22T16:19:59.342Z,81.39
2023-05-22T16:23:03.437Z,82.71
2023-05-22T16:26:07.463Z,82.76
2023-05-22T16:29:11.566Z,81.81
2023-05-22T16:32:15.457Z,81.55
2023-05-22T16:35:20.315Z,81.84
2023-05-22T16:38:24.765Z,82.71
2023-05-22T16:41:29.013Z,81.53
2023-05-22T16:44:33.150Z,80.38
2023-05-22T16:47:49.637Z,81.19
2023-05-22T16:51:12.467Z,81.24
2023-05-22T16:54:32.092Z,81.85
2023-05-22T16:57:47.207Z,82.23
2023-05-22T17:01:11.157Z,81.32
2023-05-22T17:04:40.243Z,79.68
2023-05-22T17:07:58.432Z,81.02
2023-05-22T17:11:35.677Z,82.15
2023-05-22T17:14:44.682Z,81.03
2023-05-22T17:17:52.050Z,80.95
2023-05-22T17:21:07.402Z,80.24
2023-05-22T17:24:15.429Z,80.68
2023-05-22T17:27:31.988Z,81.16
2023-05-22T17:30:40.605Z,80.85
2023-05-22T17:33:46.097Z,81.10
2023-05-22T17:36:50.364Z,82.15
2023-05-22T17:39:54.589Z,83.38
2023-05-22T17:43:01.170Z,82.98
2023-05-22T17:46:08.647Z,81.83
2023-05-22T17:49:12.759Z,81.94
2023-05-22T17:52:22.130Z,82.75
2023-05-22T17:55:32.834Z,81.25
2023-05-22T17:58:37.028Z,80.95
2023-05-22T18:01:54.963Z,80.93
2023-05-22T18:05:05.051Z,81.63
2023-05-22T18:08:09.666Z,80.86
2023-05-22T18:11:16.355Z,81.58
2023-05-22T18:14:20.690Z,82.89
2023-05-22T18:17:34.884Z,82.58
2023-05-22T18:20:39.585Z,82.62
2023-05-22T18:23:45.933Z,82.30
2023-05-22T18:26:58.086Z,82.21
2023-05-22T18:30:02.321Z,82.58
2023-05-22T18:33:14.862Z,83.56
2023-05-22T18:36:25.523Z,84.00
2023-05-22T18:39:33.201Z,84.34
2023-05-22T18:42:44.176Z,84.38
2023-05-22T18:45:53.427Z,84.90
2023-05-22T18:49:03.420Z,85.02
2023-05-22T18:52:14.402Z,84.57
2023-05-22T18:55:19.446Z,84.31
2023-05-22T18:58:24.749Z,85.22
2023-05-22T19:01:28.704Z,84.63
2023-05-22T19:04:32.826Z,84.78
2023-05-22T19:07:36.932Z,85.47
2023-05-22T19:10:42.249Z,85.35
2023-05-22T19:13:46.676Z,85.57
2023-05-22T19:16:50.810Z,85.80
2023-05-22T19:19:55.509Z,85.35
2023-05-22T19:23:55.822Z,85.76
2023-05-22T19:28:13.799Z,86.19
2023-05-22T19:32:32.229Z,85.48
2023-05-22T19:36:50.036Z,85.93
2023-05-22T19:41:08.761Z,85.40
2023-05-22T19:45:26.811Z,84.58
2023-05-22T19:49:45.316Z,84.80
2023-05-22T19:54:03.976Z,83.85
2023-05-22T20:03:14.058Z,84.57
2023-05-22T20:12:51.642Z,84.10
2023-05-22T20:17:09.501Z,83.83
2023-05-22T20:21:27.880Z,84.96
2023-05-22T20:25:27.488Z,85.67
2023-05-22T20:29:47.215Z,84.37
2023-05-22T20:34:04.702Z,84.15
2023-05-22T20:38:23.086Z,84.58
2023-05-22T20:42:43.041Z,83.33
2023-05-22T20:47:01.229Z,84.73
2023-05-22T20:51:20.560Z,85.21
2023-05-22T20:55:41.017Z,85.08
2023-05-22T21:03:47.211Z,84.14
2023-05-22T21:08:05.249Z,84.91
2023-05-22T21:12:27.987Z,85.51
2023-05-22T21:16:51.718Z,85.69
2023-05-22T21:21:09.989Z,86.06
2023-05-22T21:25:28.024Z,86.23
2023-05-22T21:29:51.809Z,86.70
2023-05-22T21:38:18.690Z,85.83
2023-05-22T21:42:45.946Z,85.22
2023-05-22T21:47:04.915Z,84.21
2023-05-22T21:51:22.921Z,82.71
2023-05-22T21:55:41.055Z,80.30
2023-05-22T21:59:59.058Z,79.58
2023-05-22T22:04:17.878Z,76.85
2023-05-22T22:08:35.802Z,77.79
2023-05-22T22:12:54.619Z,74.82
2023-05-22T22:17:12.929Z,69.82
2023-05-22T22:21:30.484Z,61.82
2023-05-22T22:29:32.737Z,57.43
2023-05-22T22:33:51.366Z,53.34
2023-05-22T22:38:10.157Z,51.91
2023-05-22T22:42:28.137Z,49.58
2023-05-22T22:46:49.146Z,48.16
2023-05-22T22:51:07.195Z,46.82
2023-05-22T22:55:25.175Z,45.34
2023-05-22T22:59:43.153Z,43.96
2023-05-22T23:03:12.300Z,44.57
2023-05-22T23:06:20.286Z,43.36
2023-05-22T23:09:26.794Z,42.86
2023-05-22T23:12:33.724Z,42.50
2023-05-22T23:15:37.803Z,41.82
2023-05-22T23:18:41.867Z,42.23
2023-05-22T23:21:45.795Z,41.35
2023-05-22T23:24:50.725Z,41.58
2023-05-22T23:27:54.965Z,41.40
2023-05-22T23:30:58.971Z,40.11
2023-05-22T23:34:02.979Z,39.10
2023-05-22T23:37:07.049Z,39.29
2023-05-22T23:40:11.299Z,39.49
2023-05-22T23:43:15.332Z,37.91
2023-05-22T23:46:21.928Z,37.25
2023-05-22T23:49:26.004Z,37.43
2023-05-22T23:52:30.128Z,37.26
2023-05-22T23:55:34.144Z,36.00
2023-05-22T23:58:39.347Z,35.80
